METAR Analyzer

一覧表示

Hello, Guest. (Login)

ZBAA/PEK  -  北京首都

観測日時
2021-08-05 02:00 (UTC) (33分前)
気温
29
露点
20
湿数
9
相対湿度
58.4%
QNH
1004hPa
推定現地気圧
999.8hPa
推定海面気圧
1003.8hPa
体感温度
24
(無風時)
26.6
HI
30.8
気温前日比
+1
体感温度前日比
+0.4
HI前日比
-1.1
水平視程
>10000m
鉛直視程
データなし
雲底高度
No dense clouds
V/I
VMC (VFR)
RVR
No RVR data
卓越風
2m/s from 330° (260° ~ 20°)
ガスト
No gust
降水
報告なし
その他の天気
報告なし
報告なし

ZBAA 050200Z 33002MPS 260V020 CAVOK 29/20 Q1004 NOSIG

ZSPD/PVG  -  上海浦東

観測日時
2021-08-05 02:00 (UTC) (33分前)
気温
30
露点
25
湿数
5
相対湿度
74.6%
QNH
1003hPa
推定現地気圧
1002.5hPa
推定海面気圧
1003.0hPa
体感温度
24.9
(無風時)
28.7
HI
36.2
気温前日比
±0
体感温度前日比
+0.2
HI前日比
±0
水平視程
>10000m
鉛直視程
データなし
雲底高度
1600ft AGL
V/I
VMC (VFR)
RVR
No RVR data
卓越風
7m/s from 100°
ガスト
No gust
降水
報告なし
その他の天気
報告なし
隙間のある雲 @ 1600ft AGL

ZSPD 050200Z 10007MPS 9999 BKN016 30/25 Q1003 NOSIG

ZSSS/SHA  -  上海虹橋

観測日時
2021-08-05 02:00 (UTC) (33分前)
気温
31
露点
24
湿数
7
相対湿度
66.4%
QNH
1003hPa
推定現地気圧
1002.6hPa
推定海面気圧
1002.9hPa
体感温度
25.7
(無風時)
28.8
HI
36.5
気温前日比
±0
体感温度前日比
-0.5
HI前日比
-1.2
水平視程
>10000m
鉛直視程
データなし
雲底高度
2600ft AGL
V/I
VMC (VFR)
RVR
No RVR data
卓越風
6m/s from 120° (90° ~ 160°)
ガスト
No gust
降水
報告なし
その他の天気
報告なし
隙間のある雲 @ 2600ft AGL

ZSSS 050200Z 12006MPS 090V160 9999 BKN026 31/24 Q1003 NOSIG

ZSAM/XMN  -  アモイ/廈門高崎

観測日時
2021-08-05 02:00 (UTC) (33分前)
気温
28
露点
26
湿数
2
相対湿度
88.9%
QNH
995hPa
推定現地気圧
992.9hPa
推定海面気圧
994.9hPa
体感温度
22.8
(無風時)
28.1
HI
33.8
気温前日比
-2
体感温度前日比
-3.3
HI前日比
-5
水平視程
>10000m
鉛直視程
データなし
雲底高度
2000ft AGL
V/I
VMC (VFR)
RVR
No RVR data
卓越風
8m/s from 80°
ガスト
No gust
降水
報告なし
その他の天気
報告なし
少しの雲 @ 900ft AGL / 散在する雲 @ 1300ft AGL / 少しの塔状積雲 @ 2000ft AGL / 隙間のある雲 @ 2000ft AGL

ZSAM 050200Z 08008MPS 9999 FEW009 SCT013 FEW020TCU BKN020 28/26 Q0995 BECMG TL0250 BKN011 BKN020

ZGSZ/SZX  -  深圳宝安

観測日時
2021-08-05 02:00 (UTC) (33分前)
気温
29
露点
26
湿数
3
相対湿度
83.9%
QNH
996hPa
推定現地気圧
995.5hPa
推定海面気圧
995.9hPa
体感温度
24.5
(無風時)
28.6
HI
35.6
気温前日比
-1
体感温度前日比
-1.3
HI前日比
-1.8
水平視程
8000m
鉛直視程
データなし
雲底高度
No dense clouds
V/I
VMC (VFR)
RVR
No RVR data
卓越風
5m/s from 270°
ガスト
No gust
降水
報告なし
その他の天気
報告なし
散在する雲 @ 1700ft AGL

ZGSZ 050200Z 27005MPS 8000 SCT017 29/26 Q0996 NOSIG

VHHH/HKG  -  香港

観測日時
2021-08-05 02:00 (UTC) (33分前)
気温
29
露点
26
湿数
3
相対湿度
83.9%
QNH
997hPa
推定現地気圧
995.9hPa
推定海面気圧
996.9hPa
体感温度
24.6
(無風時)
28.6
HI
35.6
気温前日比
-1
体感温度前日比
-1
HI前日比
-1.8
水平視程
>10000m
鉛直視程
データなし
雲底高度
No dense clouds
V/I
VMC (VFR)
RVR
No RVR data
卓越風
9kt from 250°
ガスト
No gust
降水
報告なし
その他の天気
報告なし
少しの雲 @ 1200ft AGL / 散在する雲 @ 2300ft AGL

VHHH 050200Z 25009KT 9999 FEW012 SCT023 29/26 Q0997 NOSIG

RCTP/TPE  -  台湾桃園

観測日時
2021-08-05 02:00 (UTC) (33分前)
気温
33
露点
26
湿数
7
相対湿度
66.8%
QNH
999.0hPa
推定現地気圧
995.1hPa
推定海面気圧
998.8hPa
体感温度
28.8
(無風時)
30.4
HI
42.1
気温前日比
+2
体感温度前日比
+2
HI前日比
+3
水平視程
>10000m
鉛直視程
データなし
雲底高度
12000ft AGL
V/I
VMC (VFR)
RVR
No RVR data
卓越風
5kt from 240° (210° ~ 280°)
ガスト
No gust
降水
報告なし
その他の天気
報告なし
少しの雲 @ 1500ft AGL / 散在する雲 @ 8000ft AGL / 隙間のある雲 @ 12000ft AGL

RCTP 050200Z 24005KT 210V280 9999 FEW015 SCT080 BKN120 33/26 Q0999 NOSIG RMK A2950

RCSS/TSA  -  台北松山

観測日時
2021-08-05 02:00 (UTC) (33分前)
気温
34
露点
27
湿数
7
相対湿度
67%
QNH
998.6hPa
推定現地気圧
998.0hPa
推定海面気圧
998.6hPa
体感温度
30.1
(無風時)
31.1
HI
45.3
気温前日比
+3
体感温度前日比
+3.1
HI前日比
+4.7
水平視程
>10000m
鉛直視程
データなし
雲底高度
18000ft AGL
V/I
VMC (VFR)
RVR
No RVR data
卓越風
4kt from 320° (260° ~ 50°)
ガスト
No gust
降水
報告なし
その他の天気
報告なし
少しの雲 @ 2000ft AGL / 隙間のある雲 @ 18000ft AGL

RCSS 050200Z 32004KT 260V050 9999 FEW020 BKN180 34/27 Q0998 NOSIG RMK A2949

RCKH/KHH  -  高雄

観測日時
2021-08-05 02:00 (UTC) (33分前)
気温
26
露点
25
湿数
1
相対湿度
94.2%
QNH
1000.0hPa
推定現地気圧
998.9hPa
推定海面気圧
999.9hPa
体感温度
20.5
(無風時)
26.7
HI
27.1
気温前日比
-3
体感温度前日比
-4.6
HI前日比
-9.9
水平視程
1500m / 一時 3000m
鉛直視程
データなし
雲底高度
500ft AGL
V/I
SVMC (SVFR)
RVR
No RVR data
卓越風
12kt from 230° (170° ~ 260°)
ガスト
23kt
降水
中程度のしゅう雨性の雨 (降水強度: 21.4mm/h)
降水 (一時)
中程度のしゅう雨性の雨
その他の天気
報告なし
散在する雲 @ 200ft AGL / 隙間のある雲 @ 500ft AGL / 散在する積乱雲 @ 1000ft AGL / 隙間のある雲 @ 1500ft AGL

RCKH 050200Z 23012G23KT 170V260 1500 SHRA SCT002 BKN005 SCT010CB BKN015 26/25 Q1000 TEMPO 3000 SHRA RMK 22018G29KT/R09 CB NE-E-S-SW A2953 RA AMT 21.4MM

20.5msec